Time;durP1;ratioP1;P1;durP2;ratioP2;P2;SDS_P1;SDS_P2;PMS_P1;PMS_P2;Temp;Humidity;BMP_temperature;BMP_pressure;BME280_temperature;BME280_humidity;BME280_pressure;Samples;Min_cycle;Max_cycle;Signal;HPM_P1;HPM_P2
2022/08/19 00:02:05;;;;;;;4.32;1.48;;;21.00;99.90;;;;;;5197910;28;20044;-62
2022/08/19 00:04:40;;;;;;;1.48;1.20;;;21.10;99.90;;;;;;5190597;28;20063;-62
2022/08/19 00:07:11;;;;;;;1.85;1.52;;;21.10;99.90;;;;;;5231936;28;20037;-62
2022/08/19 00:09:45;;;;;;;3.80;1.70;;;21.10;99.90;;;;;;5237454;28;20502;-61
2022/08/19 00:12:19;;;;;;;2.47;1.23;;;21.10;99.90;;;;;;5229752;28;20028;-62
2022/08/19 00:14:55;;;;;;;7.17;1.80;;;21.00;99.90;;;;;;5222852;28;20032;-64
2022/08/19 00:17:33;;;;;;;3.83;1.63;;;21.00;99.90;;;;;;5234684;28;20265;-63
2022/08/19 00:20:05;;;;;;;3.17;1.35;;;21.00;99.90;;;;;;5218291;28;20294;-62
2022/08/19 00:22:42;;;;;;;4.93;1.27;;;21.00;99.90;;;;;;5234678;28;20190;-62
2022/08/19 00:25:14;;;;;;;3.30;1.60;;;20.90;99.90;;;;;;5201844;28;20029;-61
2022/08/19 00:27:58;;;;;;;6.25;1.85;;;21.10;99.90;;;;;;5219353;28;20060;-61
2022/08/19 00:30:32;;;;;;;2.05;1.38;;;21.00;99.90;;;;;;5213363;28;20372;-61
2022/08/19 00:33:08;;;;;;;3.92;1.83;;;21.00;99.90;;;;;;5183980;28;20053;-61
2022/08/19 00:35:42;;;;;;;4.68;1.60;;;21.00;99.90;;;;;;5226170;28;20025;-61
2022/08/19 00:38:13;;;;;;;1.73;1.53;;;21.00;99.90;;;;;;5218245;28;20044;-62
2022/08/19 00:40:50;;;;;;;1.77;1.67;;;20.90;99.90;;;;;;5239898;28;20203;-62
2022/08/19 00:43:23;;;;;;;1.80;1.60;;;21.00;99.90;;;;;;5228375;28;20333;-62
2022/08/19 00:45:54;;;;;;;3.00;1.57;;;21.10;99.90;;;;;;5219167;28;20039;-62
2022/08/19 00:48:26;;;;;;;4.65;1.80;;;21.20;99.90;;;;;;5184375;28;20032;-62
2022/08/19 00:50:58;;;;;;;3.30;1.95;;;21.30;99.90;;;;;;5204395;28;20055;-62
2022/08/19 00:53:33;;;;;;;1.67;1.10;;;21.30;99.90;;;;;;5239197;28;20316;-62
2022/08/19 00:56:08;;;;;;;5.13;1.77;;;21.20;99.90;;;;;;5220501;28;20058;-62
2022/08/19 00:58:40;;;;;;;2.85;1.63;;;21.20;99.90;;;;;;5221767;28;20027;-62
2022/08/19 01:01:14;;;;;;;1.88;1.65;;;21.10;99.90;;;;;;5222931;28;20037;-61
2022/08/19 01:03:47;;;;;;;2.70;1.45;;;21.00;99.90;;;;;;5236760;28;20392;-60
2022/08/19 01:06:21;;;;;;;2.90;2.05;;;21.00;99.90;;;;;;5219236;28;20293;-61
2022/08/19 01:08:58;;;;;;;10.70;1.83;;;20.90;99.90;;;;;;5200970;28;20315;-62
2022/08/19 01:11:39;;;;;;;3.38;1.42;;;20.90;99.90;;;;;;5199706;28;20033;-61
2022/08/19 01:14:11;;;;;;;2.25;1.67;;;20.90;99.90;;;;;;5195632;28;20063;-62
2022/08/19 01:16:48;;;;;;;4.63;1.63;;;21.00;99.90;;;;;;5216850;28;20013;-62
2022/08/19 01:19:29;;;;;;;4.25;2.00;;;21.00;99.90;;;;;;5217958;28;20025;-62
2022/08/19 01:22:17;;;;;;;5.35;2.05;;;21.10;99.90;;;;;;5217555;28;20116;-62
2022/08/19 01:24:54;;;;;;;3.28;1.92;;;21.10;99.90;;;;;;5197363;28;20303;-62
2022/08/19 01:27:29;;;;;;;2.70;1.80;;;21.20;99.90;;;;;;5185970;28;20036;-62
2022/08/19 01:30:02;;;;;;;2.38;1.55;;;21.20;99.90;;;;;;5229099;28;20027;-62
2022/08/19 01:32:35;;;;;;;3.60;1.90;;;21.20;99.90;;;;;;5202546;28;20033;-62
2022/08/19 01:35:07;;;;;;;4.47;1.73;;;21.30;99.90;;;;;;5204947;28;20439;-62
2022/08/19 01:38:11;;;;;;;3.10;1.42;;;21.30;99.90;;;;;;5237531;28;20025;-62
2022/08/19 01:40:47;;;;;;;1.88;1.45;;;21.30;99.90;;;;;;5197039;28;20041;-61
2022/08/19 01:43:21;;;;;;;4.82;2.03;;;21.30;99.90;;;;;;5208956;28;20031;-62
2022/08/19 01:45:54;;;;;;;3.08;1.90;;;21.20;99.90;;;;;;5237887;28;20040;-61
2022/08/19 01:48:36;;;;;;;5.82;1.98;;;21.20;99.90;;;;;;5220918;28;20032;-61
2022/08/19 01:51:09;;;;;;;3.15;1.90;;;21.10;99.90;;;;;;5236884;28;20035;-62
2022/08/19 01:53:41;;;;;;;4.80;1.90;;;21.10;99.90;;;;;;5208130;28;20131;-62
2022/08/19 01:56:15;;;;;;;3.22;2.15;;;21.20;99.90;;;;;;5202584;28;20227;-62
2022/08/19 01:58:50;;;;;;;;;;;21.10;99.90;;;;;;5224383;28;20028;-62
2022/08/19 02:01:21;;;;;;;3.67;1.42;;;21.00;99.90;;;;;;5205540;28;20217;-62
2022/08/19 02:03:53;;;;;;;4.97;1.80;;;20.90;99.90;;;;;;5217651;28;20191;-61
2022/08/19 02:06:30;;;;;;;6.38;1.90;;;20.80;99.90;;;;;;5172286;28;20040;-61
2022/08/19 02:09:04;;;;;;;3.38;1.92;;;20.80;99.90;;;;;;5206768;28;20039;-61
2022/08/19 02:11:38;;;;;;;2.63;1.40;;;20.70;99.90;;;;;;5236366;28;20028;-62
2022/08/19 02:14:12;;;;;;;2.65;1.60;;;20.60;99.90;;;;;;5201095;28;20237;-62
2022/08/19 02:16:46;;;;;;;3.13;1.65;;;20.60;99.90;;;;;;5211917;28;20029;-62
2022/08/19 02:19:18;;;;;;;7.72;1.98;;;20.60;99.90;;;;;;5199673;28;20035;-62
2022/08/19 02:21:51;;;;;;;6.43;1.60;;;20.70;99.90;;;;;;5198782;28;20036;-62
2022/08/19 02:24:23;;;;;;;6.55;2.10;;;21.20;99.90;;;;;;5217304;28;20190;-62
2022/08/19 02:26:58;;;;;;;1.48;1.10;;;21.60;99.90;;;;;;5193307;28;20033;-62
2022/08/19 02:29:32;;;;;;;3.17;1.60;;;22.00;99.90;;;;;;5191159;28;20032;-62
2022/08/19 02:32:04;;;;;;;2.13;1.20;;;22.50;99.90;;;;;;5183297;28;20746;-61
2022/08/19 02:34:37;;;;;;;4.97;2.10;;;22.70;99.90;;;;;;5231893;28;20214;-61
2022/08/19 02:38:24;;;;;;;2.90;1.33;;;22.70;99.90;;;;;;5218127;28;20329;-63
2022/08/19 02:40:03;;;;;;;3.47;1.60;;;22.80;99.90;;;;;;5205786;28;20032;-61
2022/08/19 02:42:40;;;;;;;10.07;1.92;;;22.70;99.90;;;;;;5233125;28;20023;-63
2022/08/19 02:45:13;;;;;;;8.00;1.60;;;22.60;99.90;;;;;;5208653;28;20175;-61
2022/08/19 02:47:47;;;;;;;3.40;1.70;;;22.70;99.90;;;;;;5230241;28;20046;-61
2022/08/19 02:50:19;;;;;;;4.68;1.77;;;22.70;99.90;;;;;;5212889;28;20423;-61
2022/08/19 02:52:53;;;;;;;5.75;1.58;;;22.60;99.90;;;;;;5202498;28;20092;-62
2022/08/19 02:55:30;;;;;;;3.10;1.60;;;22.60;99.90;;;;;;5213041;28;20027;-61
2022/08/19 02:58:06;;;;;;;3.58;1.75;;;22.40;99.90;;;;;;5232985;28;20028;-62
2022/08/19 03:00:46;;;;;;;3.30;1.77;;;22.30;99.90;;;;;;5219067;28;20035;-62
2022/08/19 03:03:20;;;;;;;6.15;1.48;;;22.30;99.90;;;;;;5218543;28;20016;-61
2022/08/19 03:05:51;;;;;;;;;;;22.10;99.90;;;;;;5219862;28;20044;-61
2022/08/19 03:08:26;;;;;;;3.17;1.77;;;22.00;99.90;;;;;;5219288;28;19904;-62
2022/08/19 03:11:03;;;;;;;2.80;1.77;;;21.90;99.90;;;;;;5223670;28;20285;-61
2022/08/19 03:13:36;;;;;;;3.42;1.25;;;22.00;99.90;;;;;;5218475;28;20031;-61
2022/08/19 03:16:08;;;;;;;3.27;1.60;;;21.90;99.90;;;;;;5214719;28;20028;-61
2022/08/19 03:18:41;;;;;;;2.20;1.50;;;21.80;99.90;;;;;;5214836;28;20254;-62
2022/08/19 03:21:24;;;;;;;3.03;1.75;;;21.60;99.90;;;;;;5235638;28;20029;-62
2022/08/19 03:23:58;;;;;;;3.78;1.80;;;21.60;99.90;;;;;;5219879;28;20029;-62
2022/08/19 03:26:32;;;;;;;5.40;1.52;;;21.50;99.90;;;;;;5226423;28;20028;-61
2022/08/19 03:29:11;;;;;;;3.25;2.03;;;21.40;99.90;;;;;;5214861;28;20023;-61
2022/08/19 03:31:45;;;;;;;4.90;1.55;;;21.50;99.90;;;;;;5198165;28;20037;-61
2022/08/19 03:34:28;;;;;;;3.65;1.40;;;21.40;99.90;;;;;;5222754;28;20214;-62
2022/08/19 03:37:04;;;;;;;1.67;1.30;;;21.40;99.90;;;;;;5231013;28;20336;-62
2022/08/19 03:39:40;;;;;;;7.43;2.03;;;21.30;99.90;;;;;;5235620;28;20027;-62
2022/08/19 03:42:16;;;;;;;5.20;1.60;;;21.10;99.90;;;;;;5234149;28;20020;-62
2022/08/19 03:44:48;;;;;;;5.35;2.17;;;21.10;99.90;;;;;;5214071;28;20024;-62
2022/08/19 03:47:19;;;;;;;2.95;1.30;;;21.00;99.90;;;;;;5214193;28;20035;-62
2022/08/19 03:49:52;;;;;;;4.88;1.58;;;20.90;99.90;;;;;;5195505;28;20021;-62
2022/08/19 03:52:23;;;;;;;5.10;1.58;;;20.80;99.90;;;;;;5214597;28;20215;-62
2022/08/19 03:54:57;;;;;;;5.65;1.52;;;20.80;99.90;;;;;;5207615;28;20028;-62
2022/08/19 03:57:33;;;;;;;3.87;1.70;;;20.70;99.90;;;;;;5213906;28;20055;-62
2022/08/19 04:00:09;;;;;;;7.35;1.67;;;20.70;99.90;;;;;;5234163;28;20321;-62
2022/08/19 04:02:44;;;;;;;3.95;2.03;;;20.70;99.90;;;;;;5226956;28;20028;-61
2022/08/19 04:05:15;;;;;;;4.68;2.13;;;20.80;99.90;;;;;;5204110;28;20049;-61
2022/08/19 04:07:46;;;;;;;5.50;2.00;;;20.70;99.90;;;;;;5206034;28;20038;-62
2022/08/19 04:10:18;;;;;;;2.63;1.80;;;20.80;99.90;;;;;;5216548;28;20027;-62
2022/08/19 04:12:51;;;;;;;2.90;1.70;;;20.80;99.90;;;;;;5135209;28;2744312;-62
2022/08/19 04:15:30;;;;;;;2.83;1.58;;;20.80;99.90;;;;;;5216521;28;20033;-62
2022/08/19 04:18:01;;;;;;;2.92;1.77;;;20.80;99.90;;;;;;5215027;28;20325;-62
2022/08/19 04:20:37;;;;;;;3.72;2.17;;;20.90;99.90;;;;;;5180365;28;20227;-62
2022/08/19 04:23:14;;;;;;;3.92;1.90;;;20.90;99.90;;;;;;5220095;28;20263;-62
2022/08/19 04:25:52;;;;;;;6.05;2.45;;;20.90;99.90;;;;;;5234887;28;20023;-63
2022/08/19 04:28:26;;;;;;;5.28;1.90;;;21.00;99.90;;;;;;5235543;28;20814;-62
2022/08/19 04:30:58;;;;;;;1.70;1.48;;;21.00;99.90;;;;;;5217078;28;20021;-62
2022/08/19 04:33:29;;;;;;;2.05;1.50;;;21.10;99.90;;;;;;5223993;28;20373;-62
2022/08/19 04:36:05;;;;;;;2.88;1.90;;;21.10;99.90;;;;;;5237043;28;20101;-62
2022/08/19 04:38:36;;;;;;;5.95;2.17;;;21.20;99.90;;;;;;5237304;28;20017;-62
2022/08/19 04:43:57;;;;;;;4.07;1.70;;;21.30;99.90;;;;;;5176293;28;20104;-61
2022/08/19 04:46:31;;;;;;;5.47;2.20;;;21.60;99.90;;;;;;5193256;28;20026;-62
2022/08/19 04:49:11;;;;;;;2.22;1.70;;;21.70;99.90;;;;;;5193689;28;20306;-62
2022/08/19 04:51:43;;;;;;;3.22;1.88;;;21.90;99.90;;;;;;5220645;28;20229;-62
2022/08/19 04:54:20;;;;;;;3.05;2.00;;;22.00;99.90;;;;;;5218765;28;20107;-61
2022/08/19 04:56:53;;;;;;;5.75;1.63;;;22.00;99.90;;;;;;5219852;28;20290;-61
2022/08/19 04:59:26;;;;;;;4.25;2.28;;;21.90;99.90;;;;;;5235205;28;20021;-62
2022/08/19 05:01:57;;;;;;;4.15;1.42;;;22.00;99.90;;;;;;5222408;28;20023;-62
2022/08/19 05:04:30;;;;;;;2.35;1.65;;;22.00;99.90;;;;;;5204699;28;20030;-61
2022/08/19 05:07:02;;;;;;;2.47;1.60;;;22.00;99.90;;;;;;5218345;28;20028;-61
2022/08/19 05:09:34;;;;;;;2.92;1.83;;;22.00;99.90;;;;;;5235279;28;20025;-61
2022/08/19 05:12:11;;;;;;;4.93;1.65;;;22.00;99.90;;;;;;5216869;28;20024;-62
2022/08/19 05:14:46;;;;;;;2.67;1.40;;;22.10;99.90;;;;;;5201447;28;20233;-61
2022/08/19 05:17:20;;;;;;;3.30;1.77;;;22.10;99.90;;;;;;5216694;28;20290;-62
2022/08/19 05:22:47;;;;;;;8.30;2.08;;;22.00;99.90;;;;;;5202701;28;20339;-62
2022/08/19 05:25:25;;;;;;;2.08;1.75;;;22.10;99.90;;;;;;5218589;28;20031;-62
2022/08/19 05:27:56;;;;;;;3.33;1.73;;;22.20;99.90;;;;;;5200432;28;20029;-61
2022/08/19 05:30:27;;;;;;;3.90;2.53;;;22.20;99.90;;;;;;5217983;28;20023;-62
2022/08/19 05:32:59;;;;;;;3.80;2.17;;;22.30;99.90;;;;;;5217886;28;20031;-62
2022/08/19 05:35:34;;;;;;;2.53;2.22;;;22.40;99.90;;;;;;5217555;28;20250;-61
2022/08/19 05:38:09;;;;;;;7.65;2.90;;;22.50;99.90;;;;;;5215785;28;20029;-61
2022/08/19 05:40:49;;;;;;;3.92;2.92;;;22.50;99.90;;;;;;5217110;28;20035;-61
2022/08/19 05:43:22;;;;;;;4.45;2.63;;;22.60;99.90;;;;;;5199764;28;20029;-61
2022/08/19 05:46:01;;;;;;;5.35;3.25;;;22.60;99.90;;;;;;5200832;28;20025;-61
2022/08/19 05:48:34;;;;;;;7.95;3.55;;;22.60;99.90;;;;;;5200389;28;20032;-62
2022/08/19 05:51:06;;;;;;;4.82;3.28;;;22.60;99.90;;;;;;5216941;28;20270;-61
2022/08/19 05:53:43;;;;;;;4.53;2.85;;;22.50;99.90;;;;;;5218131;28;20033;-61
2022/08/19 05:56:16;;;;;;;2.70;2.50;;;22.50;99.90;;;;;;5199207;28;20050;-61
2022/08/19 05:58:53;;;;;;;5.28;3.20;;;22.70;99.90;;;;;;5219959;28;20060;-61
2022/08/19 06:01:26;;;;;;;3.80;3.40;;;22.70;99.90;;;;;;5203552;28;20234;-61
2022/08/19 06:04:00;;;;;;;4.95;3.30;;;22.80;99.90;;;;;;5233268;28;20021;-61
2022/08/19 06:06:35;;;;;;;6.85;3.70;;;22.90;99.90;;;;;;5185739;28;20055;-60
2022/08/19 06:09:10;;;;;;;7.40;4.53;;;22.90;99.90;;;;;;5211911;28;20032;-61
2022/08/19 06:11:53;;;;;;;4.45;3.30;;;22.80;99.90;;;;;;5237485;28;20195;-61
2022/08/19 06:14:27;;;;;;;4.22;3.22;;;22.80;99.90;;;;;;5217376;28;20037;-61
2022/08/19 06:17:02;;;;;;;7.60;3.42;;;22.80;99.90;;;;;;5225788;28;20027;-61
2022/08/19 06:19:33;;;;;;;4.30;3.40;;;23.00;99.90;;;;;;5190798;28;20075;-61
2022/08/19 06:22:07;;;;;;;3.38;2.85;;;23.10;99.90;;;;;;5215513;28;20043;-60
2022/08/19 06:24:39;;;;;;;3.33;2.88;;;23.10;99.90;;;;;;5163297;28;20037;-61
2022/08/19 06:27:12;;;;;;;5.85;3.47;;;23.30;99.90;;;;;;5178582;28;20036;-61
2022/08/19 06:29:46;;;;;;;4.97;3.30;;;23.20;99.90;;;;;;5196377;28;20032;-61
2022/08/19 06:32:18;;;;;;;3.95;2.70;;;23.30;99.90;;;;;;5195544;28;20044;-62
2022/08/19 06:34:50;;;;;;;6.38;3.10;;;23.40;99.90;;;;;;5185855;28;20028;-61
2022/08/19 06:37:22;;;;;;;3.35;2.97;;;23.60;99.90;;;;;;5199922;28;20210;-61
2022/08/19 06:39:56;;;;;;;8.93;3.60;;;23.60;99.90;;;;;;5215771;28;20035;-61
2022/08/19 06:42:27;;;;;;;4.63;2.47;;;23.70;99.90;;;;;;5198893;28;20092;-61
2022/08/19 06:45:02;;;;;;;3.58;2.63;;;23.80;99.90;;;;;;5201826;28;20321;-60
2022/08/19 06:47:33;;;;;;;3.53;2.80;;;23.90;99.90;;;;;;5195908;28;20034;-63
2022/08/19 06:50:06;;;;;;;3.03;2.45;;;23.90;99.90;;;;;;5198547;28;20047;-62
2022/08/19 06:52:39;;;;;;;3.50;2.83;;;24.00;99.90;;;;;;5220202;28;20025;-62
2022/08/19 06:55:11;;;;;;;2.83;2.10;;;24.20;99.90;;;;;;5237209;28;20016;-62
2022/08/19 06:57:45;;;;;;;3.88;2.70;;;24.50;99.90;;;;;;5219498;28;20028;-62
2022/08/19 07:00:19;;;;;;;2.38;2.03;;;24.50;99.90;;;;;;5219776;28;20306;-61
2022/08/19 07:02:52;;;;;;;3.35;2.50;;;24.60;99.90;;;;;;5235097;28;21117;-63
2022/08/19 07:05:24;;;;;;;3.05;2.33;;;24.60;99.90;;;;;;5187891;28;20045;-61
2022/08/19 07:07:56;;;;;;;2.75;2.05;;;25.00;99.90;;;;;;5222576;28;20024;-61
2022/08/19 07:10:32;;;;;;;2.20;1.95;;;25.30;99.90;;;;;;5218997;28;20299;-63
2022/08/19 07:13:03;;;;;;;2.20;2.00;;;25.50;99.90;;;;;;5186787;28;20053;-61
2022/08/19 07:15:38;;;;;;;3.85;2.45;;;25.50;99.90;;;;;;5205222;28;20029;-61
2022/08/19 07:18:15;;;;;;;3.58;2.22;;;25.50;99.90;;;;;;5231101;28;20304;-62
2022/08/19 07:20:47;;;;;;;2.60;2.40;;;25.70;99.90;;;;;;5237074;28;20324;-61
2022/08/19 07:23:21;;;;;;;3.05;2.35;;;25.60;99.90;;;;;;5223581;28;20025;-62
2022/08/19 07:25:52;;;;;;;3.10;2.63;;;25.90;99.90;;;;;;5197548;28;20036;-62
2022/08/19 07:28:26;;;;;;;2.53;2.22;;;26.30;99.90;;;;;;5216440;28;20028;-63
2022/08/19 07:31:01;;;;;;;2.53;2.33;;;26.60;99.90;;;;;;5193596;28;20044;-62
2022/08/19 07:33:38;;;;;;;2.75;2.53;;;26.70;99.90;;;;;;5194987;28;20234;-62
2022/08/19 07:36:11;;;;;;;3.88;2.70;;;26.30;99.90;;;;;;5211335;28;20202;-62
2022/08/19 07:38:45;;;;;;;2.22;2.03;;;26.20;99.90;;;;;;5232359;28;20024;-63
2022/08/19 07:41:24;;;;;;;2.55;2.03;;;26.70;99.90;;;;;;5236449;28;20016;-62
2022/08/19 07:43:57;;;;;;;3.00;2.55;;;27.00;99.90;;;;;;5226494;28;20279;-63
2022/08/19 07:46:32;;;;;;;4.78;2.35;;;28.00;99.90;;;;;;5201231;28;20021;-62
2022/08/19 07:49:06;;;;;;;3.10;2.72;;;28.70;99.90;;;;;;5215150;28;20024;-62
2022/08/19 07:51:45;;;;;;;3.65;2.30;;;28.50;99.90;;;;;;5201491;28;20030;-62
2022/08/19 07:54:18;;;;;;;3.20;2.05;;;27.90;99.90;;;;;;5217875;28;20300;-62
2022/08/19 07:56:52;;;;;;;3.22;2.28;;;27.40;99.90;;;;;;5216035;28;20013;-63
2022/08/19 07:59:24;;;;;;;4.15;2.47;;;27.50;99.90;;;;;;5216450;28;20017;-62
2022/08/19 08:02:00;;;;;;;6.70;2.75;;;27.70;99.90;;;;;;5197393;28;20017;-62
2022/08/19 08:10:13;;;;;;;2.85;2.28;;;26.90;99.90;;;;;;5214934;28;20009;-63
2022/08/19 08:12:46;;;;;;;3.40;2.30;;;26.90;99.90;;;;;;5204394;28;20387;-62
2022/08/19 08:15:18;;;;;;;2.77;2.23;;;26.70;99.90;;;;;;5208588;28;20036;-62
2022/08/19 08:17:52;;;;;;;2.33;2.00;;;26.70;99.90;;;;;;5219168;28;20286;-61
2022/08/19 08:20:23;;;;;;;3.20;2.35;;;27.20;99.90;;;;;;5236403;28;20050;-62
2022/08/19 08:25:45;;;;;;;2.58;1.80;;;27.40;99.90;;;;;;5223424;28;20131;-62
2022/08/19 08:28:19;;;;;;;2.78;2.15;;;27.90;99.90;;;;;;5225635;28;20033;-63
2022/08/19 08:30:54;;;;;;;3.97;2.33;;;28.40;99.90;;;;;;5225813;28;20029;-62
2022/08/19 08:33:27;;;;;;;2.60;2.20;;;28.70;99.90;;;;;;5199160;28;20219;-62
2022/08/19 08:36:01;;;;;;;3.45;1.88;;;28.30;99.90;;;;;;5216878;28;20024;-62
2022/08/19 08:38:38;;;;;;;5.20;2.25;;;28.30;99.90;;;;;;5189001;28;20031;-62
2022/08/19 08:41:19;;;;;;;2.90;1.88;;;28.20;99.90;;;;;;5228794;28;20150;-62
2022/08/19 08:43:57;;;;;;;3.65;1.95;;;28.00;99.90;;;;;;5216646;28;20039;-62
2022/08/19 08:46:52;;;;;;;2.42;2.20;;;28.10;99.90;;;;;;5180973;28;20027;-62
2022/08/19 08:49:43;;;;;;;4.00;2.28;;;28.20;99.90;;;;;;5222006;28;20206;-63
2022/08/19 08:52:29;;;;;;;2.78;2.25;;;28.00;99.90;;;;;;5220545;28;20020;-63
2022/08/19 08:55:06;;;;;;;2.65;2.08;;;28.10;99.90;;;;;;5213216;28;20024;-62
2022/08/19 08:57:46;;;;;;;2.53;2.05;;;28.40;99.90;;;;;;5209849;28;20036;-62
2022/08/19 09:00:24;;;;;;;2.63;2.25;;;28.90;99.90;;;;;;5220216;28;20027;-62
2022/08/19 09:03:01;;;;;;;2.97;1.83;;;29.20;99.90;;;;;;5219411;28;20017;-62
2022/08/19 09:05:58;;;;;;;3.50;2.20;;;29.40;99.90;;;;;;5192788;28;20051;-62
2022/08/19 09:08:49;;;;;;;3.47;1.98;;;30.20;99.90;;;;;;5206625;28;20274;-63
2022/08/19 09:11:29;;;;;;;2.53;2.20;;;30.50;99.90;;;;;;5226599;28;20209;-63
2022/08/19 09:14:28;;;;;;;5.07;2.10;;;31.00;99.90;;;;;;5220285;28;20310;-62
2022/08/19 09:17:07;;;;;;;3.40;2.20;;;30.60;99.90;;;;;;5201965;28;20032;-63
2022/08/19 09:20:07;;;;;;;2.78;2.20;;;30.70;99.90;;;;;;5219532;28;20027;-63
2022/08/19 09:22:43;;;;;;;4.75;2.72;;;31.20;99.90;;;;;;5219537;28;20023;-62
2022/08/19 09:25:22;;;;;;;2.50;2.00;;;31.60;99.90;;;;;;5223784;28;20062;-62
2022/08/19 09:27:56;;;;;;;3.95;2.40;;;31.40;99.90;;;;;;5184555;28;20043;-62
2022/08/19 09:30:29;;;;;;;8.27;2.50;;;31.70;99.90;;;;;;5219869;28;20188;-63
2022/08/19 09:33:01;;;;;;;2.45;2.25;;;32.70;99.90;;;;;;5224436;28;20321;-63
2022/08/19 09:35:33;;;;;;;3.67;2.20;;;32.40;99.90;;;;;;5209116;28;20055;-62
2022/08/19 09:38:06;;;;;;;2.65;1.95;;;32.90;99.90;;;;;;5232108;28;20020;-63
2022/08/19 09:40:40;;;;;;;3.45;2.15;;;33.90;99.90;;;;;;5222282;28;20036;-62
2022/08/19 09:43:11;;;;;;;;;;;34.30;99.90;;;;;;5259853;28;20032;-62
2022/08/19 09:45:42;;;;;;;3.70;2.58;;;34.70;99.90;;;;;;5261538;28;19901;-62
2022/08/19 09:48:16;;;;;;;5.00;2.35;;;34.10;99.90;;;;;;5260358;28;20020;-62
2022/08/19 09:50:52;;;;;;;3.55;2.85;;;33.90;99.90;;;;;;5242300;28;20030;-62
2022/08/19 09:53:24;;;;;;;4.05;2.20;;;32.70;99.90;;;;;;5222004;28;20213;-64
2022/08/19 09:55:55;;;;;;;4.13;2.63;;;33.10;99.90;;;;;;5205075;28;20036;-62
2022/08/19 09:58:27;;;;;;;4.85;2.42;;;34.20;99.90;;;;;;5218494;28;20039;-62
2022/08/19 10:01:01;;;;;;;4.88;2.75;;;34.70;99.90;;;;;;5233637;28;20016;-61
2022/08/19 10:03:33;;;;;;;3.60;2.55;;;34.90;99.90;;;;;;5221710;28;20040;-61
2022/08/19 10:06:05;;;;;;;2.70;2.50;;;34.80;99.90;;;;;;5211667;28;20048;-63
2022/08/19 10:08:39;;;;;;;2.83;2.63;;;34.40;99.90;;;;;;5191145;28;20286;-63
2022/08/19 10:11:15;;;;;;;;;;;33.90;99.90;;;;;;5220135;28;20232;-61
2022/08/19 10:13:49;;;;;;;3.53;2.20;;;33.80;99.90;;;;;;5183176;28;20206;-63
2022/08/19 10:16:28;;;;;;;2.42;2.10;;;33.60;99.90;;;;;;5219014;28;20029;-65
2022/08/19 10:18:59;;;;;;;7.07;2.38;;;33.50;99.90;;;;;;5239952;28;20020;-63
2022/08/19 10:21:34;;;;;;;3.40;2.17;;;33.40;99.90;;;;;;5238979;28;20025;-62
2022/08/19 10:24:08;;;;;;;4.95;2.10;;;33.00;99.90;;;;;;5204983;28;20038;-61
2022/08/19 10:26:47;;;;;;;3.55;2.20;;;32.50;99.90;;;;;;5227964;28;20019;-62
2022/08/19 10:29:23;;;;;;;2.60;2.40;;;32.80;99.90;;;;;;5217857;28;20025;-62
2022/08/19 10:31:55;;;;;;;2.50;2.17;;;32.30;99.90;;;;;;5209764;28;20038;-62
2022/08/19 10:34:27;;;;;;;2.03;1.90;;;31.40;99.90;;;;;;5233317;28;20249;-63
2022/08/19 10:37:00;;;;;;;2.55;2.22;;;31.10;99.90;;;;;;5202997;28;20117;-62
2022/08/19 10:39:37;;;;;;;4.40;1.80;;;30.70;99.90;;;;;;5190981;28;20033;-62
2022/08/19 10:42:12;;;;;;;3.95;2.25;;;30.20;99.90;;;;;;5220107;28;20025;-63
2022/08/19 10:44:46;;;;;;;2.97;2.35;;;29.80;99.90;;;;;;5219444;28;20017;-63
2022/08/19 10:47:20;;;;;;;5.43;2.53;;;29.40;99.90;;;;;;5229471;28;20026;-63
2022/08/19 10:52:47;;;;;;;5.28;2.40;;;28.20;99.90;;;;;;5200694;28;20196;-65
2022/08/19 10:58:17;;;;;;;2.95;2.45;;;27.50;99.90;;;;;;5217117;28;20021;-65
2022/08/19 11:00:56;;;;;;;8.23;2.88;;;27.50;99.90;;;;;;5198667;28;20035;-64
2022/08/19 11:03:30;;;;;;;4.38;2.75;;;27.60;99.90;;;;;;5195543;28;20035;-63
2022/08/19 11:06:03;;;;;;;;;;;27.60;99.90;;;;;;5170831;28;20220;-63
2022/08/19 11:08:37;;;;;;;3.92;1.95;;;27.50;99.90;;;;;;5197705;28;19907;-63
2022/08/19 11:11:12;;;;;;;5.20;2.90;;;27.20;99.90;;;;;;5223246;28;20176;-63
2022/08/19 11:13:52;;;;;;;3.60;1.95;;;27.10;99.90;;;;;;5200436;28;20063;-64
2022/08/19 11:16:29;;;;;;;4.32;2.20;;;27.20;99.90;;;;;;5198925;28;20025;-63
2022/08/19 11:19:06;;;;;;;3.50;2.72;;;27.40;99.90;;;;;;5227485;28;20037;-63
2022/08/19 11:21:46;;;;;;;6.10;2.25;;;27.30;99.90;;;;;;5217784;28;20193;-63
2022/08/19 11:24:20;;;;;;;4.65;2.20;;;27.40;99.90;;;;;;5226408;28;20255;-63
2022/08/19 11:27:04;;;;;;;;;;;27.70;99.90;;;;;;5238849;28;20348;-64
2022/08/19 11:29:39;;;;;;;5.20;2.38;;;27.90;99.90;;;;;;5210521;28;19901;-63
2022/08/19 11:32:12;;;;;;;5.57;2.22;;;28.50;99.90;;;;;;5221454;28;20050;-64
2022/08/19 11:34:43;;;;;;;6.50;2.25;;;29.10;99.90;;;;;;5223040;28;20035;-64
2022/08/19 11:37:17;;;;;;;5.03;2.08;;;29.40;99.90;;;;;;5219209;28;20021;-63
2022/08/19 11:39:48;;;;;;;6.93;2.25;;;29.20;99.90;;;;;;5235624;28;20036;-63
2022/08/19 11:45:10;;;;;;;3.22;1.58;;;29.10;99.90;;;;;;5220188;28;20029;-62
2022/08/19 11:47:41;;;;;;;3.65;1.77;;;29.10;99.90;;;;;;5203155;28;20036;-61
2022/08/19 11:50:14;;;;;;;1.80;1.60;;;30.70;99.90;;;;;;5217310;28;20017;-64
2022/08/19 11:52:49;;;;;;;4.78;1.67;;;33.30;99.90;;;;;;5216936;28;20313;-64
2022/08/19 11:55:20;;;;;;;4.13;2.00;;;34.90;99.90;;;;;;5232738;28;20081;-61
2022/08/19 11:57:59;;;;;;;5.03;1.95;;;34.20;99.90;;;;;;5218004;28;20217;-62
2022/08/19 12:00:30;;;;;;;2.67;1.92;;;34.30;99.90;;;;;;5219954;28;20232;-62
2022/08/19 12:03:04;;;;;;;2.90;1.52;;;33.40;99.90;;;;;;5201415;28;20245;-62
2022/08/19 12:05:40;;;;;;;5.00;2.35;;;33.10;99.90;;;;;;5206724;28;20041;-63
2022/08/19 12:08:15;;;;;;;5.25;1.65;;;32.30;99.90;;;;;;5199279;28;20031;-63
2022/08/19 12:10:46;;;;;;;4.13;1.85;;;31.90;99.90;;;;;;5209096;28;20021;-62
2022/08/19 12:13:19;;;;;;;5.63;2.20;;;32.00;99.90;;;;;;5216710;28;20361;-62
2022/08/19 12:15:51;;;;;;;5.57;1.90;;;32.10;99.90;;;;;;5215804;28;20025;-63
2022/08/19 12:18:24;;;;;;;4.43;1.92;;;32.40;99.90;;;;;;5227128;28;20423;-64
2022/08/19 12:21:01;;;;;;;4.33;1.73;;;32.40;99.90;;;;;;5233847;28;20320;-64
2022/08/19 12:23:32;;;;;;;6.15;1.80;;;31.80;99.90;;;;;;5200246;28;20230;-63
2022/08/19 12:26:06;;;;;;;4.10;2.10;;;31.70;99.90;;;;;;5226227;28;20359;-63
2022/08/19 12:28:38;;;;;;;;;;;31.70;99.90;;;;;;5201864;28;20530;-63
2022/08/19 12:31:16;;;;;;;7.80;2.60;;;31.80;99.90;;;;;;5231099;28;19900;-63
2022/08/19 12:33:48;;;;;;;6.88;2.47;;;31.40;99.90;;;;;;5215535;28;20041;-62
2022/08/19 12:36:24;;;;;;;2.13;1.83;;;30.80;99.90;;;;;;5221838;28;20290;-62
2022/08/19 12:39:00;;;;;;;7.93;2.63;;;30.30;99.90;;;;;;5216059;28;20024;-62
2022/08/19 12:41:31;;;;;;;3.13;1.80;;;30.00;99.90;;;;;;5240690;28;20025;-62
2022/08/19 12:44:03;;;;;;;10.68;2.85;;;30.00;99.90;;;;;;5201194;28;20296;-64
2022/08/19 12:46:35;;;;;;;7.07;2.42;;;29.80;99.90;;;;;;5182098;28;20025;-62
2022/08/19 12:49:06;;;;;;;3.50;1.83;;;29.80;99.90;;;;;;5197846;28;20222;-63
2022/08/19 12:51:37;;;;;;;6.72;2.50;;;29.50;99.90;;;;;;5200602;28;20017;-63
2022/08/19 12:54:08;;;;;;;5.32;2.13;;;29.00;99.90;;;;;;5211926;28;20029;-62
2022/08/19 12:56:43;;;;;;;4.05;2.00;;;28.50;99.90;;;;;;5219998;28;20017;-62
2022/08/19 12:59:17;;;;;;;5.00;1.98;;;28.10;99.90;;;;;;5204803;28;20036;-61
2022/08/19 13:01:50;;;;;;;3.67;1.83;;;27.80;99.90;;;;;;5169313;28;20040;-63
2022/08/19 13:04:21;;;;;;;4.30;1.83;;;27.60;99.90;;;;;;5208285;28;20222;-62
2022/08/19 13:06:58;;;;;;;7.78;2.60;;;27.60;99.90;;;;;;5204640;28;20605;-63
2022/08/19 13:09:29;;;;;;;3.35;2.10;;;27.40;99.90;;;;;;5220714;28;20305;-63
2022/08/19 13:12:03;;;;;;;2.72;2.10;;;27.00;99.90;;;;;;5169273;28;20043;-63
2022/08/19 13:14:38;;;;;;;4.70;2.87;;;26.80;99.90;;;;;;5187854;28;20234;-62
2022/08/19 13:17:17;;;;;;;2.63;2.30;;;26.80;99.90;;;;;;5199569;28;20035;-62
2022/08/19 13:19:52;;;;;;;5.15;1.85;;;26.60;99.90;;;;;;5212226;28;20012;-62
2022/08/19 13:22:26;;;;;;;4.95;2.10;;;26.60;99.90;;;;;;5220159;28;20233;-61
2022/08/19 13:25:00;;;;;;;2.75;1.80;;;26.60;99.90;;;;;;5202030;28;20039;-64
2022/08/19 13:27:32;;;;;;;6.47;2.42;;;26.60;99.90;;;;;;5217801;28;20037;-62
2022/08/19 13:33:15;;;;;;;5.30;2.00;;;26.90;99.90;;;;;;5223022;28;20043;-62
2022/08/19 13:36:00;;;;;;;7.63;3.00;;;27.00;99.90;;;;;;5201593;28;20043;-63
2022/08/19 13:38:31;;;;;;;2.58;1.92;;;26.80;99.90;;;;;;5220244;28;20039;-63
2022/08/19 13:41:05;;;;;;;5.38;2.35;;;26.60;99.90;;;;;;5210160;28;20193;-62
2022/08/19 13:43:36;;;;;;;5.60;2.47;;;26.50;99.90;;;;;;5216032;28;20027;-62
2022/08/19 13:46:14;;;;;;;2.03;1.63;;;26.60;99.90;;;;;;5216611;28;20033;-62
2022/08/19 13:48:48;;;;;;;2.67;2.22;;;26.80;99.90;;;;;;5240156;28;20032;-63
2022/08/19 13:51:22;;;;;;;4.68;2.08;;;27.10;99.90;;;;;;5239579;28;20205;-62
2022/08/19 13:53:57;;;;;;;4.57;1.60;;;27.30;99.90;;;;;;5228948;28;20123;-62